createdAt,value
2019-05-19T00:00:52.173Z,99.72
2019-05-19T00:01:52.626Z,99.72
2019-05-19T00:02:53.055Z,99.72
2019-05-19T00:03:53.478Z,99.72
2019-05-19T00:04:53.910Z,99.43
2019-05-19T00:05:54.356Z,99.72
2019-05-19T00:06:54.786Z,99.38
2019-05-19T00:07:55.209Z,99.96
2019-05-19T00:08:55.684Z,99.99
2019-05-19T00:09:56.092Z,99.99
2019-05-19T00:10:56.535Z,99.91
2019-05-19T00:11:56.959Z,99.99
2019-05-19T00:12:57.386Z,99.72
2019-05-19T00:13:57.805Z,99.96
2019-05-19T00:14:58.298Z,99.87
2019-05-19T00:15:58.687Z,99.96
2019-05-19T00:16:59.123Z,99.99
2019-05-19T00:17:59.558Z,99.99
2019-05-19T00:18:59.975Z,99.96
2019-05-19T00:20:00.417Z,99.99
2019-05-19T00:21:00.871Z,99.96
2019-05-19T00:22:01.272Z,99.82
2019-05-19T00:23:01.718Z,99.99
2019-05-19T00:24:02.146Z,99.63
2019-05-19T00:25:02.607Z,99.99
2019-05-19T00:26:03.033Z,99.91
2019-05-19T00:27:03.451Z,99.99
2019-05-19T00:28:03.873Z,99.99
2019-05-19T00:29:04.315Z,99.99
2019-05-19T00:30:04.846Z,99.99
2019-05-19T00:31:05.219Z,99.99
2019-05-19T00:32:05.642Z,99.99
2019-05-19T00:33:06.078Z,99.99
2019-05-19T00:34:06.487Z,99.99
2019-05-19T00:35:06.944Z,99.99
2019-05-19T00:36:07.362Z,99.99
2019-05-19T00:37:07.792Z,99.99
2019-05-19T00:38:08.226Z,99.99
2019-05-19T00:39:08.650Z,99.99
2019-05-19T00:40:09.090Z,99.99
2019-05-19T00:41:09.543Z,99.99
2019-05-19T00:42:10.008Z,99.96
2019-05-19T00:43:10.463Z,99.87
2019-05-19T00:44:10.817Z,99.99
2019-05-19T00:45:11.299Z,99.99
2019-05-19T00:46:11.689Z,99.99
2019-05-19T00:47:12.115Z,99.99
2019-05-19T00:48:13.209Z,99.67
2019-05-19T00:49:12.982Z,99.99
2019-05-19T00:50:13.433Z,99.99
2019-05-19T00:51:13.849Z,99.99
2019-05-19T00:52:14.294Z,99.67
2019-05-19T00:53:14.727Z,99.99
2019-05-19T00:54:15.145Z,99.87
2019-05-19T00:55:15.604Z,99.99
2019-05-19T00:56:16.060Z,99.99
2019-05-19T00:57:16.476Z,99.99
2019-05-19T00:58:17.577Z,99.87
2019-05-19T00:59:17.312Z,99.99
2019-05-19T01:00:17.763Z,99.87
2019-05-19T01:01:18.179Z,99.99
2019-05-19T01:02:18.622Z,99.99
2019-05-19T01:03:19.111Z,99.99
2019-05-19T01:04:19.482Z,99.67
2019-05-19T01:05:20.860Z,99.99
2019-05-19T01:06:20.376Z,99.99
2019-05-19T01:07:20.823Z,99.99
2019-05-19T01:08:21.228Z,99.99
2019-05-19T01:09:21.654Z,99.99
2019-05-19T01:10:22.193Z,99.99
2019-05-19T01:11:22.574Z,99.77
2019-05-19T01:12:22.954Z,99.77
2019-05-19T01:13:23.380Z,99.99
2019-05-19T01:14:23.833Z,99.99
2019-05-19T01:15:24.268Z,99.67
2019-05-19T01:16:24.688Z,99.99
2019-05-19T01:17:25.125Z,99.99
2019-05-19T01:18:25.568Z,99.99
2019-05-19T01:19:25.982Z,99.99
2019-05-19T01:20:26.419Z,99.99
2019-05-19T01:21:26.856Z,99.99
2019-05-19T01:22:27.431Z,99.99
2019-05-19T01:23:27.735Z,99.99
2019-05-19T01:24:28.190Z,99.99
2019-05-19T01:27:04.698Z,99.99
2019-05-19T01:28:05.142Z,99.99
2019-05-19T01:29:05.566Z,99.99
2019-05-19T01:30:05.996Z,99.99
2019-05-19T01:31:06.428Z,99.99
2019-05-19T01:32:06.854Z,99.99
2019-05-19T01:33:07.311Z,99.99
2019-05-19T01:34:07.736Z,99.99
2019-05-19T01:35:08.162Z,99.99
2019-05-19T01:36:08.605Z,99.99
2019-05-19T01:37:10.958Z,99.99
2019-05-19T01:38:09.456Z,99.99
2019-05-19T01:39:09.888Z,99.99
2019-05-19T01:40:10.335Z,99.99
2019-05-19T01:41:10.757Z,99.99
2019-05-19T01:42:11.185Z,99.99
2019-05-19T01:43:15.436Z,99.99
2019-05-19T01:44:12.063Z,99.99
2019-05-19T01:45:12.511Z,99.99
2019-05-19T01:46:12.951Z,99.99
2019-05-19T01:47:13.367Z,99.87
2019-05-19T01:48:13.786Z,99.99
2019-05-19T01:49:15.956Z,99.99
2019-05-19T01:50:18.133Z,99.99
2019-05-19T01:51:15.088Z,99.99
2019-05-19T01:52:15.523Z,99.99
2019-05-19T01:53:15.955Z,99.99
2019-05-19T01:54:16.865Z,99.99
2019-05-19T01:55:16.819Z,99.99
2019-05-19T01:56:17.253Z,99.99
2019-05-19T01:57:17.682Z,99.99
2019-05-19T01:58:18.139Z,99.99
2019-05-19T01:59:18.614Z,99.99
2019-05-19T02:00:19.021Z,99.99
2019-05-19T02:01:19.426Z,99.99
2019-05-19T02:02:21.446Z,99.99
2019-05-19T02:03:20.288Z,99.99
2019-05-19T02:04:20.731Z,99.99
2019-05-19T02:05:21.162Z,99.99
2019-05-19T02:06:21.603Z,99.91
2019-05-19T02:07:22.034Z,99.99
2019-05-19T02:08:22.449Z,99.99
2019-05-19T02:09:22.937Z,99.99
2019-05-19T02:10:23.319Z,99.99
2019-05-19T02:11:23.764Z,99.99
2019-05-19T02:12:24.180Z,99.99
2019-05-19T02:13:24.622Z,99.99
2019-05-19T02:14:25.051Z,99.99
2019-05-19T02:15:25.484Z,99.99
2019-05-19T02:16:25.924Z,99.99
2019-05-19T02:17:26.351Z,99.99
2019-05-19T02:18:26.795Z,99.99
2019-05-19T02:19:27.231Z,99.99
2019-05-19T02:20:33.392Z,99.99
2019-05-19T02:21:28.077Z,99.99
2019-05-19T02:22:28.512Z,99.99
2019-05-19T02:23:28.946Z,99.99
2019-05-19T02:24:29.374Z,99.99
2019-05-19T02:25:29.808Z,99.99
2019-05-19T02:26:30.253Z,99.99
2019-05-19T02:27:30.676Z,99.99
2019-05-19T02:28:31.112Z,99.99
2019-05-19T02:29:31.542Z,99.99
2019-05-19T02:30:32.094Z,99.99
2019-05-19T02:31:32.404Z,99.99
2019-05-19T02:32:32.857Z,99.99
2019-05-19T02:33:35.922Z,99.99
2019-05-19T02:34:35.462Z,99.99
2019-05-19T02:35:34.160Z,99.99
2019-05-19T02:36:34.574Z,99.99
2019-05-19T02:37:35.014Z,99.99
2019-05-19T02:38:35.451Z,99.99
2019-05-19T02:39:35.869Z,99.99
2019-05-19T02:40:39.088Z,99.99
2019-05-19T02:41:36.731Z,99.99
2019-05-19T02:42:37.166Z,99.99
2019-05-19T02:43:37.599Z,99.99
2019-05-19T02:44:38.042Z,99.99
2019-05-19T02:45:38.467Z,99.99
2019-05-19T02:46:38.906Z,99.99
2019-05-19T02:47:39.330Z,99.99
2019-05-19T02:48:39.767Z,99.99
2019-05-19T02:49:40.201Z,99.99
2019-05-19T02:50:51.745Z,99.99
2019-05-19T02:51:41.061Z,99.99
2019-05-19T02:52:41.498Z,99.99
2019-05-19T02:53:41.929Z,99.99
2019-05-19T02:54:42.357Z,99.99
2019-05-19T02:55:42.793Z,99.99
2019-05-19T02:56:43.267Z,99.81
2019-05-19T02:57:43.661Z,99.99
2019-05-19T02:58:44.093Z,99.99
2019-05-19T02:59:44.571Z,99.99
2019-05-19T03:00:44.977Z,99.99
2019-05-19T03:01:45.394Z,99.99
2019-05-19T03:02:45.842Z,99.99
2019-05-19T03:03:46.263Z,99.99
2019-05-19T03:04:46.702Z,99.99
2019-05-19T03:05:47.153Z,99.99
2019-05-19T03:06:48.483Z,99.99
2019-05-19T03:07:47.989Z,99.99
2019-05-19T03:08:48.431Z,99.99
2019-05-19T03:09:48.853Z,99.99
2019-05-19T03:10:49.299Z,99.99
2019-05-19T03:11:49.734Z,99.99
2019-05-19T03:12:50.158Z,99.99
2019-05-19T03:13:54.486Z,99.99
2019-05-19T03:14:51.017Z,99.99
2019-05-19T03:15:51.454Z,99.99
2019-05-19T03:16:51.883Z,99.99
2019-05-19T03:17:52.318Z,99.72
2019-05-19T03:18:52.744Z,99.99
2019-05-19T03:19:53.229Z,99.99
2019-05-19T03:21:09.780Z,99.99
2019-05-19T03:23:27.672Z,99.99
2019-05-19T03:24:28.079Z,99.99
2019-05-19T03:26:22.662Z,99.99
2019-05-19T03:28:57.173Z,99.99
2019-05-19T03:29:57.598Z,99.99
2019-05-19T03:31:52.173Z,99.99
2019-05-19T03:32:52.586Z,99.99
2019-05-19T03:34:47.207Z,99.99
2019-05-19T03:35:47.589Z,99.96
2019-05-19T03:37:42.145Z,99.99
2019-05-19T03:38:42.569Z,99.99
2019-05-19T03:40:37.138Z,99.99
2019-05-19T03:41:37.570Z,99.99
2019-05-19T03:43:33.129Z,99.77
2019-05-19T03:44:33.546Z,99.99
2019-05-19T03:46:28.137Z,99.87
2019-05-19T03:47:28.562Z,99.99
2019-05-19T03:49:23.142Z,99.87
2019-05-19T03:50:23.567Z,99.99
2019-05-19T03:52:18.143Z,99.99
2019-05-19T03:53:18.564Z,99.99
2019-05-19T03:55:13.138Z,99.96
2019-05-19T03:56:13.569Z,99.99
2019-05-19T03:58:08.140Z,99.99
2019-05-19T03:59:08.567Z,99.91
2019-05-19T04:01:03.126Z,99.91
2019-05-19T04:02:03.574Z,99.99
2019-05-19T04:03:58.134Z,99.99
2019-05-19T04:04:58.557Z,99.99
2019-05-19T04:06:54.098Z,99.99
2019-05-19T04:07:54.537Z,99.72
2019-05-19T04:09:50.083Z,99.67
2019-05-19T04:10:50.510Z,99.99
2019-05-19T04:11:50.947Z,99.99
2019-05-19T04:12:51.386Z,99.87
2019-05-19T04:13:51.813Z,99.67
2019-05-19T04:14:52.244Z,99.99
2019-05-19T04:15:52.683Z,99.91
2019-05-19T04:16:53.111Z,99.34
2019-05-19T04:17:53.547Z,99.99
2019-05-19T04:18:53.985Z,99.72
2019-05-19T04:19:54.413Z,99.99
2019-05-19T04:20:54.851Z,99.82
2019-05-19T04:21:55.283Z,99.82
2019-05-19T04:22:55.726Z,99.53
2019-05-19T04:23:56.153Z,99.05
2019-05-19T04:24:56.579Z,99.24
2019-05-19T04:25:57.024Z,99.99
2019-05-19T04:26:57.453Z,99.91
2019-05-19T04:27:57.885Z,99.72
2019-05-19T04:28:58.323Z,99.72
2019-05-19T04:29:58.756Z,98.76
2019-05-19T04:30:59.189Z,99.63
2019-05-19T04:31:59.623Z,98.86
2019-05-19T04:33:00.049Z,99.34
2019-05-19T04:34:00.502Z,98.86
2019-05-19T04:35:00.925Z,99.15
2019-05-19T04:36:01.358Z,98.96
2019-05-19T04:37:01.792Z,98.76
2019-05-19T04:38:02.228Z,98.76
2019-05-19T04:39:02.679Z,98.91
2019-05-19T04:40:03.101Z,98.96
2019-05-19T04:41:03.528Z,98.91
2019-05-19T04:42:03.966Z,98.52
2019-05-19T04:43:04.398Z,98.72
2019-05-19T04:44:04.836Z,98.14
2019-05-19T04:45:05.270Z,97.85
2019-05-19T04:46:05.708Z,97.76
2019-05-19T04:47:06.135Z,97.76
2019-05-19T04:48:09.404Z,98.14
2019-05-19T04:49:07.012Z,97.95
2019-05-19T04:50:07.444Z,97.95
2019-05-19T04:51:07.882Z,98.10
2019-05-19T04:52:08.316Z,97.76
2019-05-19T04:53:08.759Z,98.19
2019-05-19T04:54:09.187Z,97.33
2019-05-19T04:55:09.618Z,97.33
2019-05-19T04:56:10.051Z,96.85
2019-05-19T04:57:10.492Z,96.18
2019-05-19T04:58:10.922Z,96.56
2019-05-19T04:59:11.356Z,97.33
2019-05-19T05:00:11.797Z,96.66
2019-05-19T05:01:12.227Z,96.32
2019-05-19T05:02:12.666Z,96.08
2019-05-19T05:03:13.104Z,95.70
2019-05-19T05:04:13.537Z,95.94
2019-05-19T05:05:13.981Z,95.89
2019-05-19T05:06:14.410Z,96.03
2019-05-19T05:07:14.852Z,96.08
2019-05-19T05:08:28.716Z,95.65
2019-05-19T05:09:15.715Z,95.75
2019-05-19T05:10:16.148Z,95.65
2019-05-19T05:11:16.588Z,95.89
2019-05-19T05:12:17.019Z,95.75
2019-05-19T05:13:17.452Z,96.42
2019-05-19T05:14:17.950Z,95.75
2019-05-19T05:15:18.330Z,95.75
2019-05-19T05:16:18.812Z,95.94
2019-05-19T05:17:19.203Z,95.36
2019-05-19T05:18:19.648Z,95.36
2019-05-19T05:19:20.073Z,95.46
2019-05-19T05:20:20.506Z,95.21
2019-05-19T05:21:20.957Z,94.79
2019-05-19T05:22:22.514Z,95.17
2019-05-19T05:23:21.819Z,95.46
2019-05-19T05:24:22.253Z,94.83
2019-05-19T05:25:22.694Z,94.79
2019-05-19T05:26:23.125Z,94.83
2019-05-19T05:27:23.572Z,95.36
2019-05-19T05:28:24.003Z,95.17
2019-05-19T05:29:24.442Z,94.79
2019-05-19T05:30:24.878Z,95.46
2019-05-19T05:31:25.309Z,95.31
2019-05-19T05:32:25.749Z,95.46
2019-05-19T05:33:26.184Z,95.07
2019-05-19T05:34:26.627Z,94.69
2019-05-19T05:35:27.059Z,94.83
2019-05-19T05:36:27.919Z,94.83
2019-05-19T05:37:27.931Z,94.64
2019-05-19T05:38:28.407Z,94.45
2019-05-19T05:39:28.809Z,94.49
2019-05-19T05:40:29.242Z,94.01
2019-05-19T05:41:29.686Z,93.54
2019-05-19T05:42:31.872Z,93.63
2019-05-19T05:43:30.555Z,93.77
2019-05-19T05:44:30.991Z,93.49
2019-05-19T05:45:31.455Z,93.63
2019-05-19T05:46:31.880Z,93.73
2019-05-19T05:47:32.301Z,93.44
2019-05-19T05:48:32.754Z,93.05
2019-05-19T05:49:33.189Z,93.25
2019-05-19T05:50:33.620Z,92.57
2019-05-19T05:51:34.058Z,92.96
2019-05-19T05:52:38.700Z,93.25
2019-05-19T05:53:34.927Z,93.54
2019-05-19T05:54:35.370Z,92.96
2019-05-19T05:55:35.807Z,93.10
2019-05-19T05:56:36.249Z,92.91
2019-05-19T05:57:36.685Z,92.05
2019-05-19T05:58:37.127Z,92.43
2019-05-19T05:59:37.559Z,92.24
2019-05-19T06:00:38.002Z,92.05
2019-05-19T06:01:38.442Z,92.62
2019-05-19T06:02:38.874Z,92.77
2019-05-19T06:03:39.308Z,92.43
2019-05-19T06:04:39.752Z,92.62
2019-05-19T06:05:40.199Z,91.85
2019-05-19T06:06:40.675Z,92.05
2019-05-19T06:07:41.073Z,92.24
2019-05-19T06:08:41.508Z,92.05
2019-05-19T06:09:41.947Z,91.85
2019-05-19T06:10:42.388Z,91.37
2019-05-19T06:11:42.822Z,90.60
2019-05-19T06:12:43.261Z,90.60
2019-05-19T06:13:43.705Z,90.75
2019-05-19T06:14:44.151Z,90.94
2019-05-19T06:15:44.581Z,90.75
2019-05-19T06:16:45.035Z,90.17
2019-05-19T06:17:45.457Z,89.92
2019-05-19T06:18:45.899Z,89.64
2019-05-19T06:19:46.336Z,89.01
2019-05-19T06:20:46.783Z,89.01
2019-05-19T06:21:47.209Z,88.71
2019-05-19T06:22:56.409Z,87.41
2019-05-19T06:23:48.103Z,87.41
2019-05-19T06:24:48.536Z,87.17
2019-05-19T06:25:49.015Z,86.25
2019-05-19T06:26:49.418Z,83.88
2019-05-19T06:27:49.861Z,82.71
2019-05-19T06:28:50.301Z,80.86
2019-05-19T06:29:50.743Z,76.90
2019-05-19T06:30:51.216Z,77.17
2019-05-19T06:31:51.633Z,74.07
2019-05-19T06:32:52.082Z,72.46
2019-05-19T06:33:52.518Z,71.08
2019-05-19T06:34:52.971Z,70.60
2019-05-19T06:35:53.420Z,68.15
2019-05-19T06:36:55.170Z,65.59
2019-05-19T06:37:54.308Z,63.98
2019-05-19T06:38:54.788Z,62.75
2019-05-19T06:39:55.206Z,62.29
2019-05-19T06:40:55.657Z,62.62
2019-05-19T06:41:56.112Z,62.10
2019-05-19T06:42:56.554Z,60.48
2019-05-19T06:43:57.000Z,59.67
2019-05-19T06:44:57.455Z,56.43
2019-05-19T06:45:57.901Z,55.85
2019-05-19T06:46:58.357Z,55.63
2019-05-19T06:47:58.808Z,56.40
2019-05-19T06:48:59.267Z,56.50
2019-05-19T06:49:59.715Z,55.92
2019-05-19T06:51:00.169Z,55.82
2019-05-19T06:52:00.617Z,55.21
2019-05-19T06:53:13.663Z,57.54
2019-05-19T06:54:01.520Z,55.10
2019-05-19T06:55:01.984Z,54.13
2019-05-19T06:56:02.443Z,54.57
2019-05-19T06:57:02.892Z,51.65
2019-05-19T06:58:03.342Z,51.09
2019-05-19T06:59:03.799Z,50.09
2019-05-19T07:00:04.267Z,50.29
2019-05-19T07:01:04.719Z,51.26
2019-05-19T07:02:05.166Z,51.90
2019-05-19T07:03:05.620Z,49.05
2019-05-19T07:04:06.084Z,49.63
2019-05-19T07:05:06.532Z,49.90
2019-05-19T07:06:06.990Z,50.19
2019-05-19T07:07:07.483Z,50.14
2019-05-19T07:08:07.906Z,51.26
2019-05-19T07:09:08.362Z,52.72
2019-05-19T07:10:08.815Z,53.59
2019-05-19T07:11:09.276Z,53.69
2019-05-19T07:12:09.738Z,53.35
2019-05-19T07:13:10.195Z,51.38
2019-05-19T07:14:10.653Z,52.72
2019-05-19T07:15:11.101Z,53.75
2019-05-19T07:16:11.559Z,53.63
2019-05-19T07:17:12.017Z,53.75
2019-05-19T07:18:12.498Z,54.14
2019-05-19T07:19:12.958Z,54.27
2019-05-19T07:20:13.396Z,52.64
2019-05-19T07:21:13.849Z,51.48
2019-05-19T07:22:14.303Z,51.40
2019-05-19T07:23:27.197Z,51.01
2019-05-19T07:24:15.224Z,50.04
2019-05-19T07:25:15.684Z,51.55
2019-05-19T07:26:16.144Z,51.16
2019-05-19T07:27:16.600Z,52.55
2019-05-19T07:28:17.065Z,52.28
2019-05-19T07:29:17.514Z,49.07
2019-05-19T07:30:17.968Z,49.46
2019-05-19T07:31:18.430Z,49.66
2019-05-19T07:32:18.887Z,49.37
2019-05-19T07:33:19.348Z,49.27
2019-05-19T07:34:19.810Z,49.46
2019-05-19T07:35:20.264Z,50.14
2019-05-19T07:36:20.725Z,50.92
2019-05-19T07:37:21.187Z,50.60
2019-05-19T07:38:21.648Z,50.95
2019-05-19T07:39:22.106Z,48.93
2019-05-19T07:40:22.578Z,47.69
2019-05-19T07:41:23.026Z,47.61
2019-05-19T07:42:23.488Z,48.10
2019-05-19T07:43:24.049Z,46.86
2019-05-19T07:44:24.409Z,45.51
2019-05-19T07:45:24.869Z,45.32
2019-05-19T07:46:25.550Z,45.39
2019-05-19T07:47:25.976Z,46.30
2019-05-19T07:48:38.396Z,46.98
2019-05-19T07:50:41.659Z,45.18
2019-05-19T07:51:41.985Z,45.49
2019-05-19T07:53:42.841Z,44.83
2019-05-19T07:54:37.051Z,43.57
2019-05-19T07:56:31.683Z,44.24
2019-05-19T07:57:32.144Z,43.39
2019-05-19T07:59:27.749Z,42.96
2019-05-19T08:00:28.210Z,43.74
2019-05-19T08:02:22.874Z,43.54
2019-05-19T08:03:23.298Z,43.44
2019-05-19T08:05:17.925Z,44.52
2019-05-19T08:06:18.385Z,44.15
2019-05-19T08:08:14.000Z,42.85
2019-05-19T08:09:14.456Z,41.41
2019-05-19T08:11:09.114Z,40.43
2019-05-19T08:12:09.558Z,39.92
2019-05-19T08:14:04.195Z,41.42
2019-05-19T08:15:04.658Z,42.94
2019-05-19T08:16:59.296Z,42.00
2019-05-19T08:17:59.752Z,42.40
2019-05-19T08:19:54.384Z,41.77
2019-05-19T08:20:54.850Z,42.90
2019-05-19T08:22:51.425Z,41.27
2019-05-19T08:23:59.893Z,40.19
2019-05-19T08:25:44.577Z,42.50
2019-05-19T08:26:45.032Z,44.24
2019-05-19T08:28:39.674Z,44.24
2019-05-19T08:29:40.120Z,44.45
2019-05-19T08:31:34.756Z,43.62
2019-05-19T08:32:35.216Z,43.21
2019-05-19T08:34:29.846Z,44.72
2019-05-19T08:35:30.301Z,45.11
2019-05-19T08:37:28.904Z,46.55
2019-05-19T08:38:29.360Z,45.89
2019-05-19T08:39:29.829Z,45.50
2019-05-19T08:40:30.297Z,45.25
2019-05-19T08:41:30.755Z,43.91
2019-05-19T08:42:31.210Z,43.44
2019-05-19T08:43:31.676Z,41.77
2019-05-19T08:44:32.147Z,42.35
2019-05-19T08:45:32.602Z,42.14
2019-05-19T08:46:33.069Z,43.71
2019-05-19T08:47:33.535Z,41.96
2019-05-19T08:48:33.993Z,41.89
2019-05-19T08:49:34.478Z,42.72
2019-05-19T08:50:34.925Z,42.76
2019-05-19T08:51:35.386Z,41.71
2019-05-19T08:52:35.850Z,40.86
2019-05-19T08:53:36.319Z,41.61
2019-05-19T08:54:36.780Z,41.27
2019-05-19T08:55:37.254Z,39.90
2019-05-19T08:56:37.711Z,39.43
2019-05-19T08:57:38.181Z,40.47
2019-05-19T08:58:38.639Z,40.72
2019-05-19T08:59:39.121Z,42.74
2019-05-19T09:00:39.577Z,41.77
2019-05-19T09:01:40.046Z,43.13
2019-05-19T09:02:40.526Z,44.28
2019-05-19T09:03:40.978Z,42.51
2019-05-19T09:04:41.443Z,40.09
2019-05-19T09:05:41.911Z,40.66
2019-05-19T09:06:42.375Z,41.15
2019-05-19T09:07:42.852Z,41.25
2019-05-19T09:08:43.307Z,41.22
2019-05-19T09:09:43.777Z,41.32
2019-05-19T09:10:44.241Z,41.63
2019-05-19T09:11:47.767Z,40.68
2019-05-19T09:12:45.174Z,40.14
2019-05-19T09:13:45.647Z,40.09
2019-05-19T09:14:46.108Z,42.47
2019-05-19T09:15:46.574Z,42.74
2019-05-19T09:16:47.038Z,42.74
2019-05-19T09:17:47.507Z,42.82
2019-05-19T09:18:47.977Z,44.16
2019-05-19T09:19:48.437Z,44.30
2019-05-19T09:20:48.917Z,42.30
2019-05-19T09:21:49.371Z,41.91
2019-05-19T09:22:49.835Z,41.56
2019-05-19T09:23:50.305Z,40.50
2019-05-19T09:24:50.765Z,40.06
2019-05-19T09:25:51.239Z,39.47
2019-05-19T09:26:52.538Z,41.25
2019-05-19T09:27:52.161Z,40.94
2019-05-19T09:28:52.634Z,38.45
2019-05-19T09:29:53.106Z,39.37
2019-05-19T09:30:53.594Z,39.65
2019-05-19T09:31:54.071Z,39.08
2019-05-19T09:32:55.160Z,38.24
2019-05-19T09:33:55.907Z,39.10
2019-05-19T09:34:55.443Z,38.24
2019-05-19T09:35:56.027Z,37.39
2019-05-19T09:36:56.378Z,35.41
2019-05-19T09:37:56.855Z,34.96
2019-05-19T09:38:57.326Z,35.37
2019-05-19T09:39:57.797Z,35.55
2019-05-19T09:40:58.266Z,35.35
2019-05-19T09:41:58.741Z,35.16
2019-05-19T09:42:59.247Z,35.16
2019-05-19T09:43:59.720Z,35.06
2019-05-19T09:45:00.158Z,35.44
2019-05-19T09:46:00.628Z,35.17
2019-05-19T09:47:01.099Z,35.47
2019-05-19T09:48:01.574Z,34.03
2019-05-19T09:49:02.045Z,34.33
2019-05-19T09:50:02.521Z,37.04
2019-05-19T09:51:02.989Z,35.83
2019-05-19T09:52:03.471Z,35.42
2019-05-19T09:53:03.980Z,33.00
2019-05-19T09:54:04.415Z,32.61
2019-05-19T09:55:05.120Z,33.14
2019-05-19T09:56:05.360Z,33.64
2019-05-19T09:57:05.874Z,33.36
2019-05-19T09:58:06.305Z,36.07
2019-05-19T09:59:06.775Z,36.90
2019-05-19T10:00:07.248Z,34.93
2019-05-19T10:01:07.720Z,33.92
2019-05-19T10:02:08.226Z,35.19
2019-05-19T10:03:08.666Z,38.18
2019-05-19T10:04:09.143Z,38.84
2019-05-19T10:05:09.611Z,38.20
2019-05-19T10:06:10.087Z,37.35
2019-05-19T10:07:10.605Z,37.52
2019-05-19T10:08:11.059Z,36.40
2019-05-19T10:09:11.507Z,36.00
2019-05-19T10:10:11.977Z,36.47
2019-05-19T10:11:12.450Z,36.49
2019-05-19T10:12:12.916Z,35.71
2019-05-19T10:13:13.403Z,36.10
2019-05-19T10:14:13.864Z,35.35
2019-05-19T10:15:14.331Z,36.10
2019-05-19T10:16:14.802Z,37.12
2019-05-19T10:17:15.306Z,38.20
2019-05-19T10:18:15.751Z,38.38
2019-05-19T10:19:16.212Z,35.99
2019-05-19T10:20:16.684Z,35.11
2019-05-19T10:21:17.161Z,34.59
2019-05-19T10:22:17.623Z,34.39
2019-05-19T10:23:18.095Z,33.84
2019-05-19T10:24:18.635Z,33.17
2019-05-19T10:25:22.305Z,32.46
2019-05-19T10:26:19.511Z,32.56
2019-05-19T10:27:21.746Z,32.74
2019-05-19T10:28:20.454Z,33.90
2019-05-19T10:29:20.930Z,32.86
2019-05-19T10:30:21.400Z,31.92
2019-05-19T10:31:21.872Z,31.79
2019-05-19T10:32:22.357Z,31.89
2019-05-19T10:33:22.827Z,31.35
2019-05-19T10:34:23.295Z,30.95
2019-05-19T10:35:23.770Z,30.74
2019-05-19T10:36:24.234Z,32.09
2019-05-19T10:37:24.723Z,31.61
2019-05-19T10:38:25.188Z,31.17
2019-05-19T10:39:25.668Z,31.67
2019-05-19T10:40:26.137Z,34.33
2019-05-19T10:41:26.613Z,33.09
2019-05-19T10:42:27.089Z,32.60
2019-05-19T10:43:27.560Z,32.94
2019-05-19T10:44:28.037Z,33.92
2019-05-19T10:45:28.507Z,35.25
2019-05-19T10:46:28.989Z,35.27
2019-05-19T10:47:29.456Z,35.25
2019-05-19T10:48:29.930Z,34.97
2019-05-19T10:49:30.396Z,34.72
2019-05-19T10:50:30.865Z,34.16
2019-05-19T10:51:31.351Z,32.73
2019-05-19T10:52:31.860Z,34.14
2019-05-19T10:53:32.310Z,33.97
2019-05-19T10:54:32.759Z,34.38
2019-05-19T10:55:36.379Z,32.74
2019-05-19T10:56:33.692Z,32.66
2019-05-19T10:57:34.176Z,32.71
2019-05-19T10:58:34.665Z,31.87
2019-05-19T10:59:35.155Z,32.81
2019-05-19T11:00:35.592Z,33.92
2019-05-19T11:01:36.114Z,35.35
2019-05-19T11:02:36.534Z,35.36
2019-05-19T11:03:37.037Z,35.27
2019-05-19T11:04:37.481Z,35.28
2019-05-19T11:05:37.943Z,34.89
2019-05-19T11:06:38.423Z,35.92
2019-05-19T11:07:38.885Z,35.84
2019-05-19T11:08:39.362Z,35.21
2019-05-19T11:09:39.823Z,32.97
2019-05-19T11:10:40.300Z,32.70
2019-05-19T11:11:40.774Z,33.36
2019-05-19T11:12:41.263Z,34.03
2019-05-19T11:13:41.707Z,33.84
2019-05-19T11:14:42.173Z,33.84
2019-05-19T11:15:42.654Z,34.23
2019-05-19T11:16:43.219Z,34.23
2019-05-19T11:17:43.615Z,32.97
2019-05-19T11:18:44.066Z,33.43
2019-05-19T11:19:44.536Z,34.39
2019-05-19T11:20:45.003Z,35.45
2019-05-19T11:21:45.475Z,35.30
2019-05-19T11:22:45.940Z,38.17
2019-05-19T11:23:46.408Z,38.48
2019-05-19T11:24:46.875Z,38.30
2019-05-19T11:25:51.454Z,36.31
2019-05-19T11:26:47.822Z,34.89
2019-05-19T11:27:48.327Z,33.98
2019-05-19T11:28:48.749Z,34.94
2019-05-19T11:29:49.252Z,34.96
2019-05-19T11:30:49.683Z,34.68
2019-05-19T11:31:50.144Z,34.77
2019-05-19T11:32:50.608Z,35.14
2019-05-19T11:33:51.076Z,35.98
2019-05-19T11:34:51.550Z,37.39
2019-05-19T11:35:52.011Z,39.78
2019-05-19T11:36:52.476Z,39.69
2019-05-19T11:37:52.928Z,39.98
2019-05-19T11:38:53.393Z,41.01
2019-05-19T11:39:53.855Z,41.59
2019-05-19T11:40:54.314Z,41.59
2019-05-19T11:41:54.769Z,41.39
2019-05-19T11:42:55.242Z,41.59
2019-05-19T11:43:55.694Z,42.93
2019-05-19T11:44:56.162Z,43.32
2019-05-19T11:45:56.601Z,43.98
2019-05-19T11:46:57.062Z,44.17
2019-05-19T11:47:57.514Z,43.61
2019-05-19T11:48:57.972Z,43.51
2019-05-19T11:49:58.425Z,43.22
2019-05-19T11:50:58.950Z,43.80
2019-05-19T11:51:59.333Z,43.61
2019-05-19T11:52:59.787Z,44.87
2019-05-19T11:54:00.242Z,44.65
2019-05-19T11:55:00.693Z,44.17
2019-05-19T11:56:06.609Z,44.07
2019-05-19T11:57:01.633Z,44.37
2019-05-19T11:58:02.097Z,44.56
2019-05-19T11:59:02.517Z,44.73
2019-05-19T12:00:02.957Z,44.73
2019-05-19T12:01:03.412Z,45.12
2019-05-19T12:02:03.858Z,45.31
2019-05-19T12:03:04.314Z,45.21
2019-05-19T12:04:04.784Z,45.21
2019-05-19T12:05:05.230Z,44.92
2019-05-19T12:06:05.686Z,45.02
2019-05-19T12:07:06.120Z,44.92
2019-05-19T12:08:06.576Z,45.39
2019-05-19T12:09:07.016Z,45.21
2019-05-19T12:10:07.467Z,45.99
2019-05-19T12:11:07.938Z,45.80
2019-05-19T12:12:08.369Z,45.21
2019-05-19T12:13:08.849Z,45.99
2019-05-19T12:14:09.271Z,46.48
2019-05-19T12:15:09.719Z,46.67
2019-05-19T12:16:10.165Z,47.64
2019-05-19T12:17:10.644Z,47.55
2019-05-19T12:18:11.070Z,48.03
2019-05-19T12:19:11.511Z,47.62
2019-05-19T12:20:11.969Z,48.95
2019-05-19T12:21:12.416Z,49.92
2019-05-19T12:22:12.859Z,50.31
2019-05-19T12:23:13.361Z,50.12
2019-05-19T12:24:13.762Z,51.01
2019-05-19T12:25:14.337Z,51.40
2019-05-19T12:26:23.318Z,51.21
2019-05-19T12:27:15.113Z,50.26
2019-05-19T12:28:15.559Z,49.46
2019-05-19T12:29:16.012Z,48.88
2019-05-19T12:30:16.454Z,50.04
2019-05-19T12:31:16.898Z,50.04
2019-05-19T12:32:17.354Z,50.04
2019-05-19T12:33:17.802Z,51.69
2019-05-19T12:34:18.244Z,51.98
2019-05-19T12:35:18.704Z,51.79
2019-05-19T12:36:19.150Z,50.04
2019-05-19T12:37:19.596Z,48.97
2019-05-19T12:38:20.038Z,49.34
2019-05-19T12:39:20.494Z,49.07
2019-05-19T12:40:22.715Z,49.54
2019-05-19T12:41:21.381Z,49.63
2019-05-19T12:42:21.840Z,48.08
2019-05-19T12:43:22.284Z,49.44
2019-05-19T12:44:22.723Z,49.92
2019-05-19T12:45:23.291Z,49.95
2019-05-19T12:46:23.632Z,50.34
2019-05-19T12:47:24.070Z,51.01
2019-05-19T12:48:24.520Z,51.89
2019-05-19T12:49:24.974Z,51.31
2019-05-19T12:50:25.425Z,51.53
2019-05-19T12:51:26.915Z,51.31
2019-05-19T12:52:26.314Z,51.69
2019-05-19T12:53:26.763Z,51.40
2019-05-19T12:54:27.235Z,50.24
2019-05-19T12:55:27.661Z,50.07
2019-05-19T12:56:39.190Z,50.26
2019-05-19T12:57:28.550Z,48.90
2019-05-19T12:58:29.003Z,48.71
2019-05-19T12:59:29.506Z,49.10
2019-05-19T13:00:29.904Z,49.00
2019-05-19T13:01:30.350Z,49.39
2019-05-19T13:02:30.795Z,50.36
2019-05-19T13:03:31.251Z,50.65
2019-05-19T13:04:31.693Z,51.04
2019-05-19T13:05:32.149Z,50.74
2019-05-19T13:06:32.608Z,50.84
2019-05-19T13:07:33.042Z,49.58
2019-05-19T13:08:33.493Z,48.42
2019-05-19T13:09:33.950Z,47.35
2019-05-19T13:10:34.403Z,45.39
2019-05-19T13:11:34.834Z,44.71
2019-05-19T13:12:35.284Z,45.70
2019-05-19T13:13:35.733Z,46.38
2019-05-19T13:14:36.183Z,47.83
2019-05-19T13:15:36.626Z,48.22
2019-05-19T13:16:37.082Z,48.59
2019-05-19T13:17:37.535Z,48.59
2019-05-19T13:18:37.978Z,49.07
2019-05-19T13:19:38.428Z,49.07
2019-05-19T13:20:38.882Z,49.10
2019-05-19T13:21:39.325Z,49.68
2019-05-19T13:22:39.772Z,49.75
2019-05-19T13:23:40.229Z,48.39
2019-05-19T13:24:40.675Z,49.17
2019-05-19T13:25:41.154Z,50.04
2019-05-19T13:26:55.518Z,49.68
2019-05-19T13:27:42.016Z,49.49
2019-05-19T13:28:42.466Z,49.51
2019-05-19T13:29:42.916Z,49.02
2019-05-19T13:30:43.785Z,49.68
2019-05-19T13:31:43.831Z,49.12
2019-05-19T13:32:44.259Z,47.93